Time;durP1;ratioP1;P1;durP2;ratioP2;P2;SDS_P1;SDS_P2;PMS_P1;PMS_P2;Temp;Humidity;BMP_temperature;BMP_pressure;BME280_temperature;BME280_humidity;BME280_pressure;Samples;Min_cycle;Max_cycle;Signal;HPM_P1;HPM_P2
2022/04/05 00:01:07;;;;;;;7.75;5.15;;;6.00;99.90;;;;;;5091063;28;20039;-73
2022/04/05 00:04:11;;;;;;;8.25;5.32;;;5.90;99.90;;;;;;5090336;28;20044;-73
2022/04/05 00:07:15;;;;;;;12.20;6.28;;;5.90;99.90;;;;;;5090618;28;20490;-73
2022/04/05 00:10:21;;;;;;;15.07;6.43;;;5.80;99.90;;;;;;5090996;28;20043;-73
2022/04/05 00:13:25;;;;;;;12.88;6.65;;;5.70;99.90;;;;;;5090837;28;20039;-73
2022/04/05 00:16:29;;;;;;;15.50;7.82;;;5.60;99.90;;;;;;5090610;28;20497;-73
2022/04/05 00:19:33;;;;;;;20.55;8.55;;;5.60;99.90;;;;;;5090509;28;20407;-73
2022/04/05 00:22:37;;;;;;;12.10;7.85;;;5.50;99.90;;;;;;5090893;28;20039;-73
2022/04/05 00:25:41;;;;;;;14.57;7.57;;;5.50;99.90;;;;;;5091135;28;20398;-73
2022/04/05 00:28:45;;;;;;;13.57;7.95;;;5.50;99.90;;;;;;5090685;28;20055;-73
2022/04/05 00:31:52;;;;;;;12.82;7.22;;;5.30;99.90;;;;;;5090933;28;20062;-73
2022/04/05 00:34:56;;;;;;;18.88;7.20;;;5.30;99.90;;;;;;5090397;28;20063;-73
2022/04/05 00:38:00;;;;;;;12.27;7.15;;;5.40;99.90;;;;;;5090468;28;20466;-73
2022/04/05 00:41:04;;;;;;;15.10;7.30;;;5.40;99.90;;;;;;5090955;28;20039;-73
2022/04/05 00:44:08;;;;;;;14.27;7.47;;;5.30;99.90;;;;;;5090785;28;20047;-73
2022/04/05 00:47:20;;;;;;;16.38;8.02;;;5.30;99.90;;;;;;5090330;28;20050;-73
2022/04/05 00:50:27;;;;;;;9.70;6.13;;;5.30;99.90;;;;;;5090360;28;20398;-73
2022/04/05 00:53:33;;;;;;;11.02;6.25;;;5.20;99.90;;;;;;5090590;28;20044;-73
2022/04/05 00:56:37;;;;;;;8.95;5.72;;;5.20;99.90;;;;;;5090145;28;20054;-73
2022/04/05 00:59:43;;;;;;;10.25;6.47;;;5.10;99.90;;;;;;5090453;28;20395;-73
2022/04/05 01:02:49;;;;;;;13.35;5.75;;;5.10;99.90;;;;;;5090340;28;20048;-73
2022/04/05 01:05:53;;;;;;;20.25;8.80;;;5.10;99.90;;;;;;5090685;28;20043;-73
2022/04/05 01:08:57;;;;;;;18.20;10.27;;;5.10;99.90;;;;;;5094265;28;20043;-73
2022/04/05 01:12:01;;;;;;;17.17;7.78;;;5.20;99.90;;;;;;5094003;28;20047;-73
2022/04/05 01:15:06;;;;;;;15.18;9.30;;;5.20;99.90;;;;;;5093751;28;20043;-73
2022/04/05 01:18:10;;;;;;;14.98;7.82;;;5.20;99.90;;;;;;5093845;28;20040;-73
2022/04/05 01:21:14;;;;;;;15.25;8.45;;;5.20;99.90;;;;;;5093997;28;20047;-73
2022/04/05 01:24:19;;;;;;;15.82;8.80;;;5.20;99.90;;;;;;5093744;28;20050;-73
2022/04/05 01:27:27;;;;;;;13.60;8.60;;;5.10;99.90;;;;;;5093583;28;20047;-73
2022/04/05 01:30:31;;;;;;;15.90;9.77;;;5.10;99.90;;;;;;5093727;28;20510;-73
2022/04/05 01:33:35;;;;;;;25.00;14.45;;;5.00;99.90;;;;;;5092563;28;20051;-73
2022/04/05 01:36:50;;;;;;;16.83;11.38;;;4.90;99.90;;;;;;5092720;28;20055;-73
2022/04/05 01:39:55;;;;;;;21.88;12.25;;;4.70;99.90;;;;;;5093443;28;20039;-73
2022/04/05 01:42:59;;;;;;;26.25;12.68;;;4.60;99.90;;;;;;5093288;28;20047;-73
2022/04/05 01:46:03;;;;;;;32.72;12.70;;;4.50;99.90;;;;;;5092777;28;20043;-73
2022/04/05 01:49:09;;;;;;;16.00;11.55;;;4.40;99.90;;;;;;5093621;28;20413;-73
2022/04/05 01:52:12;;;;;;;19.65;10.63;;;4.40;99.90;;;;;;5093625;28;20110;-73
2022/04/05 01:55:16;;;;;;;19.55;10.05;;;4.40;99.90;;;;;;5093127;28;20047;-73
2022/04/05 01:58:20;;;;;;;13.45;8.10;;;4.30;99.90;;;;;;5093080;28;20039;-73
2022/04/05 02:01:25;;;;;;;19.42;9.40;;;4.40;99.90;;;;;;5093017;28;20043;-73
2022/04/05 02:04:29;;;;;;;14.43;7.82;;;4.40;99.90;;;;;;5092117;28;20399;-73
2022/04/05 02:07:34;;;;;;;19.90;10.02;;;4.40;99.90;;;;;;5092675;28;20043;-73
2022/04/05 02:10:38;;;;;;;17.63;9.80;;;4.40;99.90;;;;;;5093008;28;20050;-73
2022/04/05 02:13:43;;;;;;;18.15;9.70;;;4.50;99.90;;;;;;5091616;28;20051;-73
2022/04/05 02:16:47;;;;;;;19.40;10.50;;;4.50;99.90;;;;;;5092195;28;20043;-73
2022/04/05 02:19:51;;;;;;;23.27;11.90;;;4.50;99.90;;;;;;5092698;28;20051;-73
2022/04/05 02:22:57;;;;;;;20.35;12.43;;;4.50;99.90;;;;;;5080347;28;20039;-73
2022/04/05 02:26:24;;;;;;;22.08;14.68;;;4.50;99.90;;;;;;5082682;28;20039;-73
2022/04/05 02:29:31;;;;;;;21.65;12.32;;;4.50;99.90;;;;;;5091937;28;20063;-73
2022/04/05 02:32:41;;;;;;;21.42;12.23;;;4.50;99.90;;;;;;5092286;28;20043;-73
2022/04/05 02:35:48;;;;;;;19.20;10.57;;;4.50;99.90;;;;;;5092554;28;20055;-73
2022/04/05 02:38:53;;;;;;;21.35;10.02;;;4.40;99.90;;;;;;5091644;28;20387;-73
2022/04/05 02:41:59;;;;;;;18.52;9.35;;;4.40;99.90;;;;;;5091596;28;20051;-73
2022/04/05 02:45:04;;;;;;;17.48;9.15;;;4.40;99.90;;;;;;5091284;28;20047;-73
2022/04/05 02:48:08;;;;;;;18.35;9.85;;;4.40;99.90;;;;;;5091784;28;20051;-73
2022/04/05 02:51:14;;;;;;;19.67;10.45;;;4.50;99.90;;;;;;5092447;28;20058;-73
2022/04/05 02:54:18;;;;;;;18.40;10.20;;;4.50;99.90;;;;;;5091313;28;20059;-73
2022/04/05 02:57:23;;;;;;;18.13;11.05;;;4.50;99.90;;;;;;5090923;28;20035;-73
2022/04/05 03:00:31;;;;;;;18.00;8.90;;;4.50;99.90;;;;;;5091512;28;20044;-74
2022/04/05 03:03:37;;;;;;;15.85;9.48;;;4.40;99.90;;;;;;5091179;28;20234;-73
2022/04/05 03:06:42;;;;;;;14.40;9.88;;;4.40;99.90;;;;;;5090757;28;20047;-73
2022/04/05 03:09:48;;;;;;;17.70;10.73;;;4.40;99.90;;;;;;5091089;28;20098;-73
2022/04/05 03:12:55;;;;;;;16.23;11.90;;;4.40;99.90;;;;;;5091003;28;20051;-73
2022/04/05 03:16:01;;;;;;;24.20;14.10;;;4.40;99.90;;;;;;5091691;28;20046;-73
2022/04/05 03:19:08;;;;;;;26.65;14.52;;;4.30;99.90;;;;;;5091059;28;20374;-73
2022/04/05 03:22:13;;;;;;;23.73;16.05;;;4.20;99.90;;;;;;5090776;28;20336;-73
2022/04/05 03:25:17;;;;;;;21.45;13.25;;;4.10;99.90;;;;;;5091768;28;20039;-73
2022/04/05 03:28:23;;;;;;;23.50;13.50;;;4.00;99.90;;;;;;5090280;28;20047;-73
2022/04/05 03:31:28;;;;;;;26.88;14.60;;;4.00;99.90;;;;;;5090579;28;20383;-73
2022/04/05 03:34:34;;;;;;;25.70;14.98;;;3.90;99.90;;;;;;5091329;28;20047;-73
2022/04/05 03:37:38;;;;;;;24.48;13.93;;;3.90;99.90;;;;;;5090164;28;20054;-73
2022/04/05 03:40:44;;;;;;;24.50;15.20;;;3.90;99.90;;;;;;5090459;28;20039;-73
2022/04/05 03:43:49;;;;;;;23.52;15.75;;;3.90;99.90;;;;;;5090603;28;20118;-73
2022/04/05 03:47:01;;;;;;;32.83;18.90;;;3.70;99.90;;;;;;5090163;28;20046;-73
2022/04/05 03:50:08;;;;;;;26.45;16.02;;;3.60;99.90;;;;;;5090389;28;20035;-73
2022/04/05 03:53:15;;;;;;;27.65;16.88;;;3.60;99.90;;;;;;5091368;28;20067;-73
2022/04/05 03:56:22;;;;;;;30.17;17.05;;;3.60;99.90;;;;;;5089799;28;20051;-73
2022/04/05 03:59:26;;;;;;;37.42;19.48;;;3.50;99.90;;;;;;5078500;28;20051;-73
2022/04/05 04:02:35;;;;;;;27.75;17.33;;;3.50;99.90;;;;;;5089898;28;20035;-73
2022/04/05 04:05:39;;;;;;;27.98;17.35;;;3.50;99.90;;;;;;5089958;28;20544;-73
2022/04/05 04:08:46;;;;;;;31.25;18.48;;;3.50;99.90;;;;;;5089686;28;20042;-73
2022/04/05 04:11:52;;;;;;;30.30;19.27;;;3.50;99.90;;;;;;5090220;28;20043;-73
2022/04/05 04:14:57;;;;;;;28.52;18.40;;;3.50;99.90;;;;;;5089584;28;20043;-73
2022/04/05 04:18:03;;;;;;;30.02;18.17;;;3.50;99.90;;;;;;5090114;28;20047;-73
2022/04/05 04:21:10;;;;;;;32.47;18.98;;;3.40;99.90;;;;;;5089381;28;20039;-73
2022/04/05 04:24:14;;;;;;;33.25;19.05;;;3.40;99.90;;;;;;5090806;28;20059;-73
2022/04/05 04:27:18;;;;;;;30.13;20.23;;;3.50;99.90;;;;;;5089251;28;20051;-73
2022/04/05 04:30:22;;;;;;;40.33;22.27;;;3.50;99.90;;;;;;5090526;28;20054;-73
2022/04/05 04:33:26;;;;;;;50.95;28.77;;;3.50;99.90;;;;;;5090232;28;20047;-73
2022/04/05 04:36:30;;;;;;;39.42;22.23;;;3.50;99.90;;;;;;5090270;28;20047;-73
2022/04/05 04:39:35;;;;;;;44.83;24.73;;;3.50;99.90;;;;;;5090357;28;20383;-73
2022/04/05 04:42:39;;;;;;;33.58;22.73;;;3.50;99.90;;;;;;5096913;28;20047;-73
2022/04/05 04:45:43;;;;;;;33.50;21.15;;;3.50;99.90;;;;;;5096003;28;20055;-73
2022/04/05 04:48:47;;;;;;;30.65;19.83;;;3.40;99.90;;;;;;5097068;28;20414;-73
2022/04/05 04:51:51;;;;;;;32.47;21.17;;;3.30;99.90;;;;;;5096970;28;20501;-73
2022/04/05 04:54:55;;;;;;;29.65;18.85;;;3.20;99.90;;;;;;5096899;28;20051;-73
2022/04/05 04:57:59;;;;;;;33.40;21.08;;;3.20;99.90;;;;;;5096652;28;20043;-73
2022/04/05 05:01:03;;;;;;;31.63;22.58;;;3.20;99.90;;;;;;5097338;28;20051;-73
2022/04/05 05:04:07;;;;;;;35.50;24.52;;;3.20;99.90;;;;;;5096696;28;20394;-73
2022/04/05 05:07:14;;;;;;;29.70;19.33;;;3.20;99.90;;;;;;5096307;28;20079;-73
2022/04/05 05:10:19;;;;;;;33.08;21.83;;;3.20;99.90;;;;;;5097205;28;20035;-73
2022/04/05 05:13:23;;;;;;;23.23;14.55;;;3.20;99.90;;;;;;5096612;28;20067;-73
2022/04/05 05:16:27;;;;;;;27.95;16.35;;;3.30;99.90;;;;;;5096972;28;20055;-73
2022/04/05 05:19:32;;;;;;;23.67;14.15;;;3.30;99.90;;;;;;5097311;28;20395;-73
2022/04/05 05:22:36;;;;;;;23.35;13.55;;;3.40;99.90;;;;;;5097781;28;20066;-73
2022/04/05 05:25:42;;;;;;;26.02;14.05;;;3.40;99.90;;;;;;5097306;28;20051;-73
2022/04/05 05:28:45;;;;;;;25.25;14.30;;;3.50;99.90;;;;;;5097193;28;20382;-73
2022/04/05 05:31:49;;;;;;;24.98;13.85;;;3.50;99.90;;;;;;5096908;28;20050;-73
2022/04/05 05:34:53;;;;;;;20.40;13.40;;;3.60;99.90;;;;;;5097504;28;20039;-73
2022/04/05 05:37:58;;;;;;;23.90;14.35;;;3.60;99.90;;;;;;5097563;28;20047;-73
2022/04/05 05:41:02;;;;;;;30.05;15.07;;;3.90;99.90;;;;;;5097182;28;20047;-73
2022/04/05 05:44:08;;;;;;;19.95;12.52;;;6.90;99.90;;;;;;5096923;28;20055;-73
2022/04/05 05:47:12;;;;;;;15.52;10.30;;;10.30;99.90;;;;;;5097001;28;20031;-73
2022/04/05 05:50:17;;;;;;;21.27;11.25;;;12.90;99.90;;;;;;5096702;28;20047;-73
2022/04/05 05:53:21;;;;;;;19.20;9.30;;;14.80;99.90;;;;;;5093576;28;20044;-73
2022/04/05 05:56:25;;;;;;;16.85;9.52;;;16.50;99.90;;;;;;5093411;28;20054;-73
2022/04/05 05:59:29;;;;;;;18.27;9.93;;;17.70;99.90;;;;;;5093035;28;20043;-73
2022/04/05 06:02:41;;;;;;;18.40;9.90;;;18.70;99.40;;;;;;5099358;28;20126;-74
2022/04/05 06:05:46;;;;;;;15.65;9.88;;;19.20;98.60;;;;;;5108478;28;20043;-74
2022/04/05 06:08:50;;;;;;;14.75;10.23;;;19.80;97.70;;;;;;5102780;28;20047;-74
2022/04/05 06:11:54;;;;;;;17.63;9.82;;;19.70;96.20;;;;;;5102838;28;20050;-74
2022/04/05 06:14:58;;;;;;;25.23;13.55;;;19.90;96.20;;;;;;5106026;28;20047;-71
2022/04/05 06:18:02;;;;;;;15.52;9.32;;;19.60;94.90;;;;;;5104558;28;20039;-73
2022/04/05 06:21:06;;;;;;;16.63;10.05;;;16.70;96.70;;;;;;5106383;28;20118;-73
2022/04/05 06:24:10;;;;;;;17.35;10.48;;;15.30;98.90;;;;;;5098673;28;20126;-73
2022/04/05 06:27:13;;;;;;;13.43;9.65;;;15.70;99.70;;;;;;5098001;28;20035;-72
2022/04/05 06:30:18;;;;;;;17.67;11.85;;;16.30;98.10;;;;;;5104318;28;20046;-71
2022/04/05 06:33:22;;;;;;;15.98;10.80;;;17.10;97.80;;;;;;5101859;28;20035;-73
2022/04/05 06:36:29;;;;;;;16.83;10.57;;;17.90;97.30;;;;;;5109117;28;20054;-71
2022/04/05 06:39:34;;;;;;;15.43;9.00;;;18.40;96.60;;;;;;5112605;28;20378;-71
2022/04/05 06:42:43;;;;;;;12.60;9.55;;;18.50;95.40;;;;;;5108248;28;20038;-71
2022/04/05 06:45:47;;;;;;;14.73;10.15;;;17.40;95.40;;;;;;5110337;28;20050;-71
2022/04/05 06:48:51;;;;;;;14.48;10.45;;;16.90;96.50;;;;;;5105323;28;20062;-71
2022/04/05 06:51:55;;;;;;;16.58;10.23;;;17.80;95.90;;;;;;5107957;28;20054;-71
2022/04/05 06:54:59;;;;;;;17.88;10.38;;;18.50;95.30;;;;;;5109106;28;20055;-71
2022/04/05 06:58:03;;;;;;;13.48;10.00;;;19.50;94.80;;;;;;5106447;28;20051;-71
2022/04/05 07:01:09;;;;;;;16.05;11.77;;;20.10;93.70;;;;;;5098866;28;20039;-71
2022/04/05 07:04:13;;;;;;;17.77;11.52;;;21.00;92.70;;;;;;5106983;28;20512;-71
2022/04/05 07:07:17;;;;;;;17.80;11.55;;;21.50;93.00;;;;;;5104165;28;20489;-71
2022/04/05 07:10:23;;;;;;;14.15;8.95;;;22.20;91.80;;;;;;5105449;28;20493;-71
2022/04/05 07:13:27;;;;;;;14.13;9.93;;;22.60;91.40;;;;;;5105480;28;20055;-71
2022/04/05 07:16:31;;;;;;;18.00;12.57;;;23.10;90.00;;;;;;5099049;28;20042;-71
2022/04/05 07:19:35;;;;;;;17.25;11.00;;;23.30;88.30;;;;;;5106114;28;20050;-71
2022/04/05 07:22:48;;;;;;;16.05;9.93;;;23.20;86.00;;;;;;5102864;28;20039;-71
2022/04/05 07:25:52;;;;;;;18.52;13.73;;;19.60;87.40;;;;;;5102823;28;20062;-71
2022/04/05 07:28:56;;;;;;;14.05;9.82;;;16.00;93.40;;;;;;5108824;28;20055;-71
2022/04/05 07:32:00;;;;;;;12.15;8.52;;;16.00;94.50;;;;;;5102002;28;20046;-71
2022/04/05 07:35:05;;;;;;;23.98;16.00;;;17.10;94.20;;;;;;5109486;28;20046;-71
2022/04/05 07:38:09;;;;;;;28.02;15.68;;;19.30;92.70;;;;;;5106700;28;20043;-71
2022/04/05 07:41:14;;;;;;;31.05;18.58;;;20.70;91.40;;;;;;5099145;28;20035;-71
2022/04/05 07:44:18;;;;;;;27.73;18.80;;;21.80;90.30;;;;;;5102235;28;20034;-71
2022/04/05 07:47:24;;;;;;;16.25;10.40;;;22.90;87.90;;;;;;5100106;28;20039;-71
2022/04/05 07:50:28;;;;;;;14.15;8.00;;;22.00;86.10;;;;;;5108540;28;20066;-71
2022/04/05 07:53:33;;;;;;;14.90;9.25;;;22.70;86.40;;;;;;5096114;28;20474;-71
2022/04/05 07:56:37;;;;;;;15.65;9.52;;;21.40;86.30;;;;;;5102939;28;20043;-71
2022/04/05 07:59:41;;;;;;;19.13;14.52;;;20.40;89.60;;;;;;5107541;28;20038;-70
2022/04/05 08:02:45;;;;;;;28.33;20.58;;;18.10;91.30;;;;;;5107462;28;20046;-69
2022/04/05 08:05:49;;;;;;;31.05;19.92;;;19.40;91.40;;;;;;5105330;28;20051;-69
2022/04/05 08:08:54;;;;;;;29.60;20.42;;;19.30;91.90;;;;;;5105479;28;20052;-70
2022/04/05 08:11:58;;;;;;;30.48;21.17;;;18.00;91.80;;;;;;5101286;28;20063;-70
2022/04/05 08:15:02;;;;;;;26.38;19.40;;;20.60;91.10;;;;;;5102296;28;20059;-70
2022/04/05 08:18:08;;;;;;;24.25;17.55;;;23.00;88.60;;;;;;5102940;28;20480;-70
2022/04/05 08:21:13;;;;;;;26.33;19.45;;;24.80;83.60;;;;;;5097851;28;20047;-70
2022/04/05 08:24:20;;;;;;;30.60;20.55;;;22.80;83.70;;;;;;5099825;28;20390;-70
2022/04/05 08:27:29;;;;;;;27.05;18.55;;;22.70;84.00;;;;;;5105803;28;20043;-70
2022/04/05 08:30:34;;;;;;;31.70;21.70;;;24.80;83.10;;;;;;5098886;28;20058;-69
2022/04/05 08:33:40;;;;;;;29.63;20.65;;;25.50;80.00;;;;;;5102369;28;20030;-71
2022/04/05 08:36:45;;;;;;;28.38;20.10;;;26.10;77.70;;;;;;5104833;28;20106;-70
2022/04/05 08:39:49;;;;;;;28.52;19.73;;;27.00;76.30;;;;;;5108856;28;20493;-70
2022/04/05 08:42:56;;;;;;;35.10;24.90;;;26.60;74.90;;;;;;5107533;28;20031;-71
2022/04/05 08:46:03;;;;;;;31.85;22.20;;;25.00;74.00;;;;;;5096625;28;20054;-69
2022/04/05 08:49:07;;;;;;;26.25;19.40;;;21.80;79.50;;;;;;5104563;28;20058;-70
2022/04/05 08:52:11;;;;;;;32.40;21.90;;;24.90;77.60;;;;;;5108855;28;20055;-71
2022/04/05 08:55:17;;;;;;;34.30;24.25;;;24.10;73.60;;;;;;5105334;28;20050;-69
2022/04/05 08:58:21;;;;;;;32.38;21.50;;;22.60;75.30;;;;;;5109200;28;20047;-71
2022/04/05 09:01:29;;;;;;;30.45;21.42;;;23.60;78.40;;;;;;5106935;28;20054;-70
2022/04/05 09:04:36;;;;;;;25.65;17.77;;;27.00;75.70;;;;;;5101586;28;20039;-70
2022/04/05 09:07:42;;;;;;;25.40;17.20;;;29.00;71.00;;;;;;5102607;28;20063;-70
2022/04/05 09:10:51;;;;;;;20.80;14.93;;;29.60;66.70;;;;;;5102237;28;20043;-70
2022/04/05 09:14:03;;;;;;;18.50;11.80;;;29.10;68.20;;;;;;5104238;28;20046;-72
2022/04/05 09:17:12;;;;;;;16.90;11.23;;;30.20;65.70;;;;;;5108044;28;20047;-72
2022/04/05 09:20:19;;;;;;;17.45;13.02;;;31.90;65.50;;;;;;5108469;28;20034;-72
2022/04/05 09:23:29;;;;;;;18.35;13.25;;;33.40;60.70;;;;;;5105574;28;20110;-72
2022/04/05 09:26:43;;;;;;;10.90;6.63;;;34.50;57.70;;;;;;5108155;28;20039;-70
2022/04/05 09:29:50;;;;;;;11.45;8.55;;;33.40;56.20;;;;;;5111153;28;20066;-71
2022/04/05 09:33:04;;;;;;;28.55;23.73;;;33.30;56.50;;;;;;5105964;28;20039;-70
2022/04/05 09:36:15;;;;;;;12.45;9.10;;;32.20;57.50;;;;;;5109849;28;20054;-70
2022/04/05 09:39:25;;;;;;;12.30;8.88;;;32.90;53.80;;;;;;5107865;28;20390;-71
2022/04/05 09:42:29;;;;;;;7.88;5.75;;;33.50;53.80;;;;;;5107567;28;20157;-68
2022/04/05 09:45:58;;;;;;;4.15;3.15;;;35.60;52.80;;;;;;5098689;28;20066;-69
2022/04/05 09:49:03;;;;;;;4.55;2.97;;;34.60;51.30;;;;;;5109055;28;20055;-69
2022/04/05 09:52:26;;;;;;;9.25;5.57;;;32.80;51.10;;;;;;5098513;28;20347;-71
2022/04/05 09:55:30;;;;;;;10.55;8.80;;;34.50;50.20;;;;;;5105032;28;20039;-71
2022/04/05 09:58:35;;;;;;;7.15;4.53;;;30.80;51.10;;;;;;5102360;28;20039;-68
2022/04/05 10:01:39;;;;;;;7.28;5.63;;;30.90;49.90;;;;;;5110166;28;20050;-68
2022/04/05 10:05:08;;;;;;;9.45;6.95;;;32.60;51.20;;;;;;5107735;28;20051;-72
2022/04/05 10:08:12;;;;;;;6.72;4.03;;;33.10;51.30;;;;;;5106529;28;20045;-69
2022/04/05 10:11:17;;;;;;;6.63;4.47;;;35.30;50.50;;;;;;5101006;28;20051;-68
2022/04/05 10:14:21;;;;;;;4.32;2.80;;;36.10;50.00;;;;;;5100514;28;20073;-69
2022/04/05 10:17:27;;;;;;;4.60;3.28;;;36.50;50.20;;;;;;5106892;28;20038;-71
2022/04/05 10:20:33;;;;;;;3.35;2.05;;;37.10;49.00;;;;;;5101129;28;20351;-71
2022/04/05 10:23:40;;;;;;;7.50;3.60;;;37.10;48.20;;;;;;5106106;28;20042;-71
2022/04/05 10:26:49;;;;;;;4.03;2.75;;;37.10;47.80;;;;;;5107243;28;20047;-69
2022/04/05 10:30:05;;;;;;;4.70;1.70;;;36.90;48.00;;;;;;5108164;28;20062;-71
2022/04/05 10:33:28;;;;;;;2.75;1.52;;;36.70;46.60;;;;;;5107497;28;20042;-71
2022/04/05 10:36:32;;;;;;;3.13;1.70;;;36.70;46.50;;;;;;5105989;28;20748;-71
2022/04/05 10:39:37;;;;;;;3.08;1.50;;;37.60;46.00;;;;;;5105126;28;20066;-71
2022/04/05 10:42:47;;;;;;;3.50;1.98;;;38.00;45.10;;;;;;5108830;28;20047;-70
2022/04/05 10:45:51;;;;;;;3.55;1.80;;;38.10;44.40;;;;;;5107106;28;20067;-70
2022/04/05 10:48:56;;;;;;;4.78;1.20;;;37.80;45.20;;;;;;5109028;28;20038;-72
2022/04/05 10:52:17;;;;;;;2.85;1.42;;;37.30;42.90;;;;;;5102575;28;20505;-71
2022/04/05 10:55:21;;;;;;;3.03;1.52;;;37.60;43.70;;;;;;5105530;28;20477;-71
2022/04/05 10:58:25;;;;;;;5.75;1.83;;;38.40;42.30;;;;;;5104639;28;20058;-72
2022/04/05 11:01:43;;;;;;;3.42;2.00;;;38.20;43.60;;;;;;5113276;28;20042;-70
2022/04/05 11:04:47;;;;;;;3.47;1.80;;;36.80;43.70;;;;;;5107124;28;20054;-70
2022/04/05 11:07:54;;;;;;;2.53;1.48;;;36.50;44.60;;;;;;5102699;28;20039;-71
2022/04/05 11:11:05;;;;;;;5.00;1.77;;;37.90;43.50;;;;;;5108773;28;20055;-71
2022/04/05 11:14:09;;;;;;;4.10;1.77;;;37.50;44.40;;;;;;5107643;28;20058;-72
2022/04/05 11:17:16;;;;;;;3.88;2.13;;;38.50;42.80;;;;;;5105498;28;20062;-72
2022/04/05 11:20:21;;;;;;;3.20;1.77;;;38.00;43.20;;;;;;5105521;28;20054;-70
2022/04/05 11:23:46;;;;;;;2.38;1.70;;;37.90;43.20;;;;;;5098622;28;20039;-71
2022/04/05 11:26:50;;;;;;;1.85;1.33;;;38.00;42.50;;;;;;5107266;28;20050;-70
2022/04/05 11:30:22;;;;;;;2.15;1.67;;;37.90;42.20;;;;;;5107498;28;20046;-72
2022/04/05 11:33:31;;;;;;;4.45;2.33;;;37.30;42.80;;;;;;5106210;28;20043;-73
2022/04/05 11:36:42;;;;;;;3.17;2.20;;;35.00;42.70;;;;;;5108222;28;20047;-72
2022/04/05 11:39:49;;;;;;;4.60;2.45;;;31.50;43.20;;;;;;5112471;28;20257;-72
2022/04/05 11:42:54;;;;;;;11.20;10.00;;;33.10;45.50;;;;;;5106631;28;20051;-73
2022/04/05 11:46:05;;;;;;;16.75;13.07;;;32.60;45.20;;;;;;5109321;28;20043;-72
2022/04/05 11:49:14;;;;;;;23.23;19.35;;;34.20;43.70;;;;;;5100239;28;20039;-70
2022/04/05 11:52:28;;;;;;;7.00;2.63;;;35.50;43.30;;;;;;5098502;28;20122;-72
2022/04/05 11:58:57;;;;;;;5.53;4.40;;;33.80;45.10;;;;;;5105617;28;20051;-71
2022/04/05 12:02:01;;;;;;;7.07;5.60;;;34.90;43.50;;;;;;5106832;28;20066;-72
2022/04/05 12:05:05;;;;;;;10.55;9.07;;;34.70;45.70;;;;;;5104555;28;20051;-73
2022/04/05 12:08:11;;;;;;;7.97;5.82;;;34.80;44.60;;;;;;5102792;28;20039;-73
2022/04/05 12:11:20;;;;;;;5.50;4.05;;;35.90;43.70;;;;;;5106921;28;20386;-72
2022/04/05 12:14:29;;;;;;;4.28;2.70;;;36.00;44.10;;;;;;5102868;28;20403;-72
2022/04/05 12:17:33;;;;;;;4.35;2.83;;;35.60;44.30;;;;;;5100932;28;20039;-71
2022/04/05 12:20:36;;;;;;;5.68;3.28;;;34.50;44.00;;;;;;5110188;28;20477;-72
2022/04/05 12:23:43;;;;;;;4.88;3.25;;;34.30;46.20;;;;;;5105838;28;20062;-71
2022/04/05 12:26:48;;;;;;;3.45;2.38;;;35.00;44.00;;;;;;5108000;28;20042;-72
2022/04/05 12:29:58;;;;;;;4.03;2.67;;;35.40;42.30;;;;;;5107571;28;20043;-73
2022/04/05 12:33:03;;;;;;;4.70;2.47;;;35.40;43.00;;;;;;5105347;28;20039;-73
2022/04/05 12:36:08;;;;;;;2.83;2.35;;;35.20;44.00;;;;;;5103698;28;20042;-72
2022/04/05 12:39:24;;;;;;;4.60;2.65;;;34.90;43.60;;;;;;5102036;28;20030;-72
2022/04/05 12:42:40;;;;;;;3.67;2.72;;;34.00;44.10;;;;;;5109971;28;20046;-73
2022/04/05 12:45:44;;;;;;;2.85;2.22;;;34.80;42.90;;;;;;5107253;28;20034;-71
2022/04/05 12:48:48;;;;;;;4.38;3.00;;;34.40;43.60;;;;;;5108984;28;20039;-71
2022/04/05 12:51:53;;;;;;;4.38;2.35;;;33.30;43.80;;;;;;5101021;28;20047;-71
2022/04/05 12:54:58;;;;;;;4.05;2.35;;;33.70;44.60;;;;;;5099983;28;20276;-71
2022/04/05 12:58:02;;;;;;;5.85;2.63;;;34.10;43.80;;;;;;5109652;28;20039;-71
2022/04/05 13:01:16;;;;;;;10.20;4.20;;;34.10;44.00;;;;;;5095122;28;20039;-73
2022/04/05 13:04:23;;;;;;;9.95;7.80;;;33.50;43.60;;;;;;5113513;28;20035;-72
2022/04/05 13:07:27;;;;;;;19.48;17.17;;;34.30;44.80;;;;;;5109987;28;20031;-71
2022/04/05 13:10:47;;;;;;;17.08;13.20;;;34.80;43.90;;;;;;5112215;28;20485;-70
2022/04/05 13:14:01;;;;;;;;;;;34.50;43.80;;;;;;5109953;28;20051;-71
2022/04/05 13:17:06;;;;;;;5.25;3.97;;;34.40;44.20;;;;;;5106203;28;19908;-71
2022/04/05 13:20:11;;;;;;;16.92;12.57;;;33.90;43.70;;;;;;5114037;28;20390;-71
2022/04/05 13:23:18;;;;;;;4.22;2.20;;;34.10;44.60;;;;;;5107514;28;20706;-73
2022/04/05 13:26:26;;;;;;;4.03;1.80;;;33.80;44.10;;;;;;5106067;28;20506;-72
2022/04/05 13:29:30;;;;;;;3.65;2.53;;;34.00;43.90;;;;;;5111161;28;20035;-72
2022/04/05 13:32:34;;;;;;;2.80;1.42;;;33.10;43.80;;;;;;5101375;28;20047;-73
2022/04/05 13:35:39;;;;;;;4.07;1.60;;;31.70;44.20;;;;;;5114719;28;20047;-71
2022/04/05 13:38:43;;;;;;;3.17;1.58;;;31.10;43.50;;;;;;5103571;28;20406;-72
2022/04/05 13:41:47;;;;;;;3.80;1.65;;;28.40;42.60;;;;;;5100968;28;20055;-71
2022/04/05 13:44:51;;;;;;;4.25;1.92;;;27.00;44.00;;;;;;5113821;28;20480;-72
2022/04/05 13:47:55;;;;;;;4.85;1.60;;;28.60;46.20;;;;;;5112418;28;20038;-71
2022/04/05 13:51:03;;;;;;;2.72;1.50;;;29.10;44.20;;;;;;5105963;28;20054;-72
2022/04/05 13:54:10;;;;;;;4.28;1.77;;;29.60;46.50;;;;;;5106816;28;20039;-72
2022/04/05 13:57:17;;;;;;;5.35;1.88;;;28.80;44.70;;;;;;5105137;28;20043;-72
2022/04/05 14:00:22;;;;;;;2.90;1.60;;;29.80;46.90;;;;;;5102278;28;20058;-72
2022/04/05 14:03:26;;;;;;;3.05;1.77;;;29.90;46.10;;;;;;5114459;28;20046;-71
2022/04/05 14:06:31;;;;;;;2.92;1.40;;;29.60;45.10;;;;;;5105243;28;20055;-70
2022/04/05 14:09:35;;;;;;;3.17;1.77;;;28.70;46.50;;;;;;5114612;28;20552;-71
2022/04/05 14:12:40;;;;;;;5.10;1.50;;;27.20;45.30;;;;;;5103211;28;20043;-72
2022/04/05 14:15:44;;;;;;;4.03;1.65;;;26.80;48.50;;;;;;5100654;28;20042;-71
2022/04/05 14:18:50;;;;;;;2.75;1.98;;;26.60;47.30;;;;;;5107810;28;20050;-70
2022/04/05 14:21:56;;;;;;;6.57;1.88;;;25.50;48.20;;;;;;5103678;28;20037;-70
2022/04/05 14:25:02;;;;;;;4.97;1.58;;;24.40;49.90;;;;;;5104660;28;20050;-71
2022/04/05 14:28:08;;;;;;;4.03;2.00;;;24.20;48.10;;;;;;5108840;28;20034;-71
2022/04/05 14:31:12;;;;;;;3.53;1.83;;;24.50;48.90;;;;;;5101262;28;20058;-70
2022/04/05 14:34:16;;;;;;;3.25;1.80;;;23.70;47.90;;;;;;5100637;28;20054;-71
2022/04/05 14:37:20;;;;;;;3.55;1.98;;;23.10;50.90;;;;;;5106165;28;20046;-70
2022/04/05 14:40:24;;;;;;;6.75;1.92;;;23.20;51.20;;;;;;5104824;28;20040;-72
2022/04/05 14:43:27;;;;;;;6.65;1.75;;;23.00;50.30;;;;;;5100944;28;20498;-71
2022/04/05 14:46:33;;;;;;;3.20;1.60;;;23.00;51.10;;;;;;5091418;28;20401;-71
2022/04/05 14:49:38;;;;;;;5.13;1.98;;;23.00;51.20;;;;;;5096536;28;20046;-71
2022/04/05 14:52:42;;;;;;;3.15;1.80;;;23.20;50.60;;;;;;5101547;28;20038;-72
2022/04/05 14:55:46;;;;;;;4.18;1.92;;;23.20;51.90;;;;;;5107942;28;20035;-71
2022/04/05 14:58:50;;;;;;;5.10;2.00;;;22.50;52.10;;;;;;5111131;28;20517;-71
2022/04/05 15:01:54;;;;;;;3.30;1.60;;;21.90;51.10;;;;;;5099897;28;20035;-70
2022/04/05 15:04:59;;;;;;;4.07;2.28;;;21.00;52.30;;;;;;5104510;28;20034;-71
2022/04/05 15:08:03;;;;;;;5.63;2.03;;;19.90;54.60;;;;;;5105004;28;20035;-71
2022/04/05 15:11:07;;;;;;;2.97;1.80;;;19.90;54.80;;;;;;5113298;28;20051;-71
2022/04/05 15:14:11;;;;;;;4.43;2.05;;;20.20;54.40;;;;;;5112968;28;20042;-71
2022/04/05 15:17:15;;;;;;;4.03;2.30;;;20.60;55.80;;;;;;5111344;28;20054;-70
2022/04/05 15:20:21;;;;;;;3.05;2.22;;;20.90;56.80;;;;;;5092039;28;20055;-71
2022/04/05 15:23:27;;;;;;;4.97;2.13;;;20.80;55.60;;;;;;5091787;28;20043;-70
2022/04/05 15:26:31;;;;;;;6.80;2.38;;;20.70;57.40;;;;;;5090460;28;20046;-71
2022/04/05 15:29:37;;;;;;;3.85;2.20;;;20.70;58.00;;;;;;5090833;28;20059;-70
2022/04/05 15:32:41;;;;;;;5.47;2.50;;;20.80;57.30;;;;;;5090804;28;20055;-71
2022/04/05 15:35:45;;;;;;;4.35;2.60;;;20.90;57.70;;;;;;5091164;28;20051;-71
2022/04/05 15:38:50;;;;;;;3.00;2.25;;;20.90;57.90;;;;;;5090633;28;20269;-70
2022/04/05 15:41:53;;;;;;;5.65;3.22;;;20.60;59.50;;;;;;5090968;28;20573;-70
2022/04/05 15:44:58;;;;;;;5.32;3.15;;;20.40;59.70;;;;;;5090992;28;20522;-70
2022/04/05 15:48:02;;;;;;;7.13;3.00;;;20.00;58.90;;;;;;5090054;28;20364;-71
2022/04/05 15:51:06;;;;;;;5.82;2.60;;;19.80;59.90;;;;;;5091019;28;20043;-71
2022/04/05 15:54:13;;;;;;;4.75;2.70;;;19.70;60.00;;;;;;5090855;28;20537;-71
2022/04/05 15:57:18;;;;;;;4.70;3.00;;;19.50;60.50;;;;;;5090346;28;20047;-71
2022/04/05 16:00:23;;;;;;;3.97;2.50;;;19.40;60.40;;;;;;5090559;28;20039;-71
2022/04/05 16:03:27;;;;;;;6.05;3.63;;;19.20;60.00;;;;;;5090621;28;20039;-71